Galileo — SX2040 — position and weather

sailwx.info

Track history (hours):
 
Tides and Currents Weather Stations Pressure Air Temp Water Temp Dewpoint Dewpoint Depression Visibility Wind Speed Wind Dir Waves Ship Positions

Galileo

Last reported at 2014-Sep-22 13:33 UTC. Time now 2014-Sep-22 14:18 UTC.
Position N 37°28' E 025°20'.

Length 40 m; draft 3 m.

Type: Passenger vessel. MMSI: 239299000.

Date/timePositionNaut miles runAvg speedWind from/ knotsBaromVisibWave heightAir tempDewpointWater temp
2014-Sep-22 13:33N 37°28' E 025°20'0 0.0
2014-Sep-22 12:33N 37°28' E 025°20'0 0.0
2014-Sep-22 11:33N 37°28' E 025°20'0 0.0
2014-Sep-22 10:34N 37°28' E 025°20'0 0.0
2014-Sep-22 09:33N 37°28' E 025°20'0 0.0
2014-Sep-22 08:33N 37°28' E 025°20'0 0.0
2014-Sep-22 07:33N 37°28' E 025°20'0 0.0
2014-Sep-22 06:30N 37°28' E 025°20'2 2.0
2014-Sep-22 05:33N 37°28' E 025°17'9 9.0
2014-Sep-22 04:32N 37°27' E 025°06'7 7.4
2014-Sep-22 03:33N 37°27' E 024°57'0 0.0
2014-Sep-22 02:29N 37°27' E 024°57'0 0.0
2014-Sep-22 01:32N 37°27' E 024°57'0 0.0
2014-Sep-22 00:11N 37°27' E 024°57'0 0.0
2014-Sep-21 23:33N 37°27' E 024°57'0 0.0
2014-Sep-21 22:33N 37°27' E 024°57'0 0.0
2014-Sep-21 21:29N 37°27' E 024°57'0 0.0
2014-Sep-21 20:29N 37°27' E 024°57'0 0.0
2014-Sep-21 19:32N 37°27' E 024°57'0 0.0
2014-Sep-21 18:29N 37°27' E 024°57'0 0.0
2014-Sep-21 17:32N 37°27' E 024°57'0 0.0
2014-Sep-21 16:32N 37°27' E 024°57'0 0.0
2014-Sep-21 15:32N 37°27' E 024°57'0 0.0
2014-Sep-21 14:30N 37°27' E 024°57'0 0.0
2014-Sep-21 13:33N 37°27' E 024°57'0 0.0
2014-Sep-21 12:31N 37°27' E 024°57'0 0.0
2014-Sep-21 11:33N 37°27' E 024°57'0 0.0
2014-Sep-21 10:23N 37°27' E 024°57'2 2.1
2014-Sep-21 09:28N 37°25' E 024°59'0 0.0
2014-Sep-21 08:28N 37°25' E 024°59'0 0.0
2014-Sep-21 07:29N 37°25' E 024°59'62 7.8
2014-Sep-20 23:32N 37°46' E 023°45'3 3.1
2014-Sep-20 22:33N 37°49' E 023°46'0 0.0
2014-Sep-20 21:33N 37°49' E 023°46'0 0.0
2014-Sep-20 20:33N 37°49' E 023°46'0 0.0
2014-Sep-20 19:30N 37°49' E 023°46'0 0.0
2014-Sep-20 18:33N 37°49' E 023°46'0 0.0
2014-Sep-20 17:30N 37°49' E 023°46'0 0.0
2014-Sep-20 16:31N 37°49' E 023°46'0 0.0
2014-Sep-20 15:34N 37°49' E 023°46'0 0.2
2014-Sep-20 14:33N 37°49' E 023°46'8 8.5
2014-Sep-20 13:34N 37°55' E 023°39'1 0.8
2014-Sep-20 12:34N 37°56' E 023°39'1 1.0
2014-Sep-20 11:34N 37°55' E 023°39'1 1.0
2014-Sep-20 10:34N 37°56' E 023°39'0 0.0
2014-Sep-20 09:34N 37°56' E 023°39'0 0.0
2014-Sep-20 08:34N 37°56' E 023°39'0 0.0
2014-Sep-20 07:34N 37°56' E 023°39'0 0.0
2014-Sep-20 06:33N 37°56' E 023°39'3 3.0
2014-Sep-20 05:34N 37°53' E 023°41'11 9.6
2014-Sep-20 04:26N 37°44' E 023°47'59 8.5
2014-Sep-19 21:32N 37°22' E 024°55'5 4.5
2014-Sep-19 20:29N 37°26' E 024°57'0 0.0
2014-Sep-19 19:32N 37°26' E 024°57'0 0.0
2014-Sep-19 18:32N 37°26' E 024°57'0 0.0
2014-Sep-19 17:31N 37°26' E 024°57'0 0.0
2014-Sep-19 16:29N 37°26' E 024°57'0 0.0
2014-Sep-19 15:33N 37°26' E 024°57'0 0.0
2014-Sep-19 14:30N 37°26' E 024°57'0 0.0
2014-Sep-19 13:30N 37°26' E 024°57'0 0.0
2014-Sep-19 12:32N 37°26' E 024°57'0 0.0
2014-Sep-19 11:32N 37°26' E 024°57'0 0.0
2014-Sep-19 10:30N 37°26' E 024°57'0 0.0
2014-Sep-19 09:32N 37°26' E 024°57'0 0.0
2014-Sep-19 08:33N 37°26' E 024°57'0 0.0
2014-Sep-19 07:33N 37°26' E 024°57'0 0.0
2014-Sep-19 06:31N 37°26' E 024°57'0 0.0
2014-Sep-19 05:33N 37°26' E 024°57'0 0.0
2014-Sep-19 04:31N 37°26' E 024°57'0 0.0
2014-Sep-19 03:33N 37°26' E 024°57'0 0.0
2014-Sep-19 02:33N 37°26' E 024°57'0 0.0
2014-Sep-19 01:33N 37°26' E 024°57'0 0.0
2014-Sep-19 00:31N 37°26' E 024°57'0 0.0
2014-Sep-18 23:30N 37°26' E 024°57'0 0.0
2014-Sep-18 22:30N 37°26' E 024°57'0 0.0
2014-Sep-18 21:32N 37°26' E 024°57'0 0.4
2014-Sep-18 20:30N 37°26' E 024°57'0 0.4
2014-Sep-18 19:32N 37°26' E 024°57'0 0.0
2014-Sep-18 18:33N 37°26' E 024°57'0 0.0
2014-Sep-18 17:31N 37°26' E 024°57'0 0.0
2014-Sep-18 16:33N 37°26' E 024°57'0 0.0
2014-Sep-18 15:29N 37°26' E 024°57'0 0.0
2014-Sep-18 14:33N 37°26' E 024°57'0 0.0
2014-Sep-18 13:32N 37°26' E 024°57'0 0.0
2014-Sep-18 12:33N 37°26' E 024°57'0 0.0
2014-Sep-18 11:33N 37°26' E 024°57'0 0.0
2014-Sep-18 10:33N 37°26' E 024°57'0 0.0
2014-Sep-18 09:31N 37°26' E 024°57'0 0.0
2014-Sep-18 08:30N 37°26' E 024°57'0 0.0
2014-Sep-18 07:33N 37°26' E 024°57'0 0.0
2014-Sep-18 06:30N 37°26' E 024°57'0 0.0
2014-Sep-18 05:24N 37°26' E 024°57'0 0.0
2014-Sep-18 04:33N 37°26' E 024°57'0 0.0
2014-Sep-18 03:33N 37°26' E 024°57'0 0.0
2014-Sep-18 02:33N 37°26' E 024°57'0 0.0
2014-Sep-18 01:31N 37°26' E 024°57'0 0.0
2014-Sep-18 00:33N 37°26' E 024°57'0 0.0
2014-Sep-17 23:33N 37°26' E 024°57'0 0.0
2014-Sep-17 22:33N 37°26' E 024°57'0 0.0
2014-Sep-17 21:33N 37°26' E 024°57'0 0.0
2014-Sep-17 20:19N 37°26' E 024°57'0 0.0
2014-Sep-17 19:23N 37°26' E 024°57'0 0.0
2014-Sep-17 18:34N 37°26' E 024°57'0 0.0
2014-Sep-17 17:31N 37°26' E 024°57'0 0.0
2014-Sep-17 16:33N 37°26' E 024°57'6 5.0
2014-Sep-17 15:25N 37°27' E 025°04'10 9.4
2014-Sep-17 14:21N 37°28' E 025°16'3 3.8
2014-Sep-17 13:33N 37°25' E 025°17'10 8.6
2014-Sep-17 12:24N 37°15' E 025°13'7 8.0
2014-Sep-17 11:33N 37°09' E 025°09'4 0.6
2014-Sep-17 04:33N 37°05' E 025°09'9 8.3
2014-Sep-17 03:30N 37°04' E 024°58'9 8.2
2014-Sep-17 02:25N 36°55' E 024°57'29 1.2
2014-Sep-16 02:24N 36°42' E 025°29'7 8.5
2014-Sep-16 01:33N 36°46' E 025°36'9 8.7
2014-Sep-16 00:33N 36°50' E 025°46'4 0.3
2014-Sep-15 13:32N 36°53' E 025°48'1010.4
2014-Sep-15 12:33N 37°02' E 025°41'1010.2
2014-Sep-15 11:33N 37°11' E 025°35'7 7.2
2014-Sep-15 10:33N 37°10' E 025°26'4 1.1
2014-Sep-15 06:29N 37°06' E 025°22'0 0.0
2014-Sep-15 04:20N 37°06' E 025°22'5 6.4
2014-Sep-15 03:32N 37°10' E 025°18'8 8.3
2014-Sep-15 02:32N 37°09' E 025°08'9 9.5
2014-Sep-15 01:33N 37°07' E 024°57'10 9.2
2014-Sep-15 00:25N 37°04' E 024°44'63 1.8
2014-Sep-13 14:20N 37°45' E 023°45'7 9.4
2014-Sep-13 13:33N 37°52' E 023°41'4 4.1
2014-Sep-13 12:33N 37°56' E 023°39'0 0.0
2014-Sep-13 11:33N 37°56' E 023°39'0 0.0
2014-Sep-13 10:33N 37°56' E 023°39'0 0.0
2014-Sep-13 09:33N 37°56' E 023°39'0 0.0
2014-Sep-13 08:33N 37°56' E 023°39'0 0.0
2014-Sep-13 07:33N 37°56' E 023°39'0 0.0
2014-Sep-13 06:33N 37°56' E 023°39'0 0.0
2014-Sep-13 05:33N 37°56' E 023°39'0 0.0
2014-Sep-13 04:33N 37°56' E 023°39'0 0.0
2014-Sep-13 03:33N 37°56' E 023°39'0 0.0
2014-Sep-13 02:33N 37°56' E 023°39'0 0.0
2014-Sep-13 01:33N 37°56' E 023°39'0 0.0
2014-Sep-13 00:33N 37°56' E 023°39'0 0.0
2014-Sep-12 23:33N 37°56' E 023°39'0 0.0
2014-Sep-12 22:33N 37°56' E 023°39'0 0.0
2014-Sep-12 21:33N 37°56' E 023°39'0 0.0
2014-Sep-12 20:33N 37°56' E 023°39'0 0.0
2014-Sep-12 19:33N 37°56' E 023°39'0 0.0
2014-Sep-12 18:33N 37°56' E 023°39'0 0.0
2014-Sep-12 17:33N 37°56' E 023°39'0 0.0
2014-Sep-12 16:33N 37°56' E 023°39'0 0.0
2014-Sep-12 15:33N 37°56' E 023°39'7 7.0
2014-Sep-12 14:33N 37°50' E 023°42'  
Track history (hours):
 
Tides and Currents Weather Stations Pressure Air Temp Water Temp Dewpoint Dewpoint Depression Visibility Wind Speed Wind Dir Waves Ship Positions

Galileo

Last reported at 2014-Sep-22 13:33 UTC. Time now 2014-Sep-22 14:18 UTC.
Position N 37°28' E 025°20'.

Length 40 m; draft 3 m.

Type: Passenger vessel. MMSI: 239299000.

Date/timePositionNaut miles runAvg speedWind from/ knotsBaromVisibWave heightAir tempDewpointWater temp
2014-Sep-22 13:33N 37°28' E 025°20'0 0.0
2014-Sep-22 12:33N 37°28' E 025°20'0 0.0
2014-Sep-22 11:33N 37°28' E 025°20'0 0.0
2014-Sep-22 10:34N 37°28' E 025°20'0 0.0
2014-Sep-22 09:33N 37°28' E 025°20'0 0.0
2014-Sep-22 08:33N 37°28' E 025°20'0 0.0
2014-Sep-22 07:33N 37°28' E 025°20'0 0.0
2014-Sep-22 06:30N 37°28' E 025°20'2 2.0
2014-Sep-22 05:33N 37°28' E 025°17'9 9.0
2014-Sep-22 04:32N 37°27' E 025°06'7 7.4
2014-Sep-22 03:33N 37°27' E 024°57'0 0.0
2014-Sep-22 02:29N 37°27' E 024°57'0 0.0
2014-Sep-22 01:32N 37°27' E 024°57'0 0.0
2014-Sep-22 00:11N 37°27' E 024°57'0 0.0
2014-Sep-21 23:33N 37°27' E 024°57'0 0.0
2014-Sep-21 22:33N 37°27' E 024°57'0 0.0
2014-Sep-21 21:29N 37°27' E 024°57'0 0.0
2014-Sep-21 20:29N 37°27' E 024°57'0 0.0
2014-Sep-21 19:32N 37°27' E 024°57'0 0.0
2014-Sep-21 18:29N 37°27' E 024°57'0 0.0
2014-Sep-21 17:32N 37°27' E 024°57'0 0.0
2014-Sep-21 16:32N 37°27' E 024°57'0 0.0
2014-Sep-21 15:32N 37°27' E 024°57'0 0.0
2014-Sep-21 14:30N 37°27' E 024°57'0 0.0
2014-Sep-21 13:33N 37°27' E 024°57'0 0.0
2014-Sep-21 12:31N 37°27' E 024°57'0 0.0
2014-Sep-21 11:33N 37°27' E 024°57'0 0.0
2014-Sep-21 10:23N 37°27' E 024°57'2 2.1
2014-Sep-21 09:28N 37°25' E 024°59'0 0.0
2014-Sep-21 08:28N 37°25' E 024°59'0 0.0
2014-Sep-21 07:29N 37°25' E 024°59'62 7.8
2014-Sep-20 23:32N 37°46' E 023°45'3 3.1
2014-Sep-20 22:33N 37°49' E 023°46'0 0.0
2014-Sep-20 21:33N 37°49' E 023°46'0 0.0
2014-Sep-20 20:33N 37°49' E 023°46'0 0.0
2014-Sep-20 19:30N 37°49' E 023°46'0 0.0
2014-Sep-20 18:33N 37°49' E 023°46'0 0.0
2014-Sep-20 17:30N 37°49' E 023°46'0 0.0
2014-Sep-20 16:31N 37°49' E 023°46'0 0.0
2014-Sep-20 15:34N 37°49' E 023°46'0 0.2
2014-Sep-20 14:33N 37°49' E 023°46'8 8.5
2014-Sep-20 13:34N 37°55' E 023°39'1 0.8
2014-Sep-20 12:34N 37°56' E 023°39'1 1.0
2014-Sep-20 11:34N 37°55' E 023°39'1 1.0
2014-Sep-20 10:34N 37°56' E 023°39'0 0.0
2014-Sep-20 09:34N 37°56' E 023°39'0 0.0
2014-Sep-20 08:34N 37°56' E 023°39'0 0.0
2014-Sep-20 07:34N 37°56' E 023°39'0 0.0
2014-Sep-20 06:33N 37°56' E 023°39'3 3.0
2014-Sep-20 05:34N 37°53' E 023°41'11 9.6
2014-Sep-20 04:26N 37°44' E 023°47'59 8.5
2014-Sep-19 21:32N 37°22' E 024°55'5 4.5
2014-Sep-19 20:29N 37°26' E 024°57'0 0.0
2014-Sep-19 19:32N 37°26' E 024°57'0 0.0
2014-Sep-19 18:32N 37°26' E 024°57'0 0.0
2014-Sep-19 17:31N 37°26' E 024°57'0 0.0
2014-Sep-19 16:29N 37°26' E 024°57'0 0.0
2014-Sep-19 15:33N 37°26' E 024°57'0 0.0
2014-Sep-19 14:30N 37°26' E 024°57'0 0.0
2014-Sep-19 13:30N 37°26' E 024°57'0 0.0
2014-Sep-19 12:32N 37°26' E 024°57'0 0.0
2014-Sep-19 11:32N 37°26' E 024°57'0 0.0
2014-Sep-19 10:30N 37°26' E 024°57'0 0.0
2014-Sep-19 09:32N 37°26' E 024°57'0 0.0
2014-Sep-19 08:33N 37°26' E 024°57'0 0.0
2014-Sep-19 07:33N 37°26' E 024°57'0 0.0
2014-Sep-19 06:31N 37°26' E 024°57'0 0.0
2014-Sep-19 05:33N 37°26' E 024°57'0 0.0
2014-Sep-19 04:31N 37°26' E 024°57'0 0.0
2014-Sep-19 03:33N 37°26' E 024°57'0 0.0
2014-Sep-19 02:33N 37°26' E 024°57'0 0.0
2014-Sep-19 01:33N 37°26' E 024°57'0 0.0
2014-Sep-19 00:31N 37°26' E 024°57'0 0.0
2014-Sep-18 23:30N 37°26' E 024°57'0 0.0
2014-Sep-18 22:30N 37°26' E 024°57'0 0.0
2014-Sep-18 21:32N 37°26' E 024°57'0 0.4
2014-Sep-18 20:30N 37°26' E 024°57'0 0.4
2014-Sep-18 19:32N 37°26' E 024°57'0 0.0
2014-Sep-18 18:33N 37°26' E 024°57'0 0.0
2014-Sep-18 17:31N 37°26' E 024°57'0 0.0
2014-Sep-18 16:33N 37°26' E 024°57'0 0.0
2014-Sep-18 15:29N 37°26' E 024°57'0 0.0
2014-Sep-18 14:33N 37°26' E 024°57'0 0.0
2014-Sep-18 13:32N 37°26' E 024°57'0 0.0
2014-Sep-18 12:33N 37°26' E 024°57'0 0.0
2014-Sep-18 11:33N 37°26' E 024°57'0 0.0
2014-Sep-18 10:33N 37°26' E 024°57'0 0.0
2014-Sep-18 09:31N 37°26' E 024°57'0 0.0
2014-Sep-18 08:30N 37°26' E 024°57'0 0.0
2014-Sep-18 07:33N 37°26' E 024°57'0 0.0
2014-Sep-18 06:30N 37°26' E 024°57'0 0.0
2014-Sep-18 05:24N 37°26' E 024°57'0 0.0
2014-Sep-18 04:33N 37°26' E 024°57'0 0.0
2014-Sep-18 03:33N 37°26' E 024°57'0 0.0
2014-Sep-18 02:33N 37°26' E 024°57'0 0.0
2014-Sep-18 01:31N 37°26' E 024°57'0 0.0
2014-Sep-18 00:33N 37°26' E 024°57'0 0.0
2014-Sep-17 23:33N 37°26' E 024°57'0 0.0
2014-Sep-17 22:33N 37°26' E 024°57'0 0.0
2014-Sep-17 21:33N 37°26' E 024°57'0 0.0
2014-Sep-17 20:19N 37°26' E 024°57'0 0.0
2014-Sep-17 19:23N 37°26' E 024°57'0 0.0
2014-Sep-17 18:34N 37°26' E 024°57'0 0.0
2014-Sep-17 17:31N 37°26' E 024°57'0 0.0
2014-Sep-17 16:33N 37°26' E 024°57'6 5.0
2014-Sep-17 15:25N 37°27' E 025°04'10 9.4
2014-Sep-17 14:21N 37°28' E 025°16'3 3.8
2014-Sep-17 13:33N 37°25' E 025°17'10 8.6
2014-Sep-17 12:24N 37°15' E 025°13'7 8.0
2014-Sep-17 11:33N 37°09' E 025°09'4 0.6
2014-Sep-17 04:33N 37°05' E 025°09'9 8.3
2014-Sep-17 03:30N 37°04' E 024°58'9 8.2
2014-Sep-17 02:25N 36°55' E 024°57'29 1.2
2014-Sep-16 02:24N 36°42' E 025°29'7 8.5
2014-Sep-16 01:33N 36°46' E 025°36'9 8.7
2014-Sep-16 00:33N 36°50' E 025°46'4 0.3
2014-Sep-15 13:32N 36°53' E 025°48'1010.4
2014-Sep-15 12:33N 37°02' E 025°41'1010.2
2014-Sep-15 11:33N 37°11' E 025°35'7 7.2
2014-Sep-15 10:33N 37°10' E 025°26'4 1.1
2014-Sep-15 06:29N 37°06' E 025°22'0 0.0
2014-Sep-15 04:20N 37°06' E 025°22'5 6.4
2014-Sep-15 03:32N 37°10' E 025°18'8 8.3
2014-Sep-15 02:32N 37°09' E 025°08'9 9.5
2014-Sep-15 01:33N 37°07' E 024°57'10 9.2
2014-Sep-15 00:25N 37°04' E 024°44'63 1.8
2014-Sep-13 14:20N 37°45' E 023°45'7 9.4
2014-Sep-13 13:33N 37°52' E 023°41'4 4.1
2014-Sep-13 12:33N 37°56' E 023°39'0 0.0
2014-Sep-13 11:33N 37°56' E 023°39'0 0.0
2014-Sep-13 10:33N 37°56' E 023°39'0 0.0
2014-Sep-13 09:33N 37°56' E 023°39'0 0.0
2014-Sep-13 08:33N 37°56' E 023°39'0 0.0
2014-Sep-13 07:33N 37°56' E 023°39'0 0.0
2014-Sep-13 06:33N 37°56' E 023°39'0 0.0
2014-Sep-13 05:33N 37°56' E 023°39'0 0.0
2014-Sep-13 04:33N 37°56' E 023°39'0 0.0
2014-Sep-13 03:33N 37°56' E 023°39'0 0.0
2014-Sep-13 02:33N 37°56' E 023°39'0 0.0
2014-Sep-13 01:33N 37°56' E 023°39'0 0.0
2014-Sep-13 00:33N 37°56' E 023°39'0 0.0
2014-Sep-12 23:33N 37°56' E 023°39'0 0.0
2014-Sep-12 22:33N 37°56' E 023°39'0 0.0
2014-Sep-12 21:33N 37°56' E 023°39'0 0.0
2014-Sep-12 20:33N 37°56' E 023°39'0 0.0
2014-Sep-12 19:33N 37°56' E 023°39'0 0.0
2014-Sep-12 18:33N 37°56' E 023°39'0 0.0
2014-Sep-12 17:33N 37°56' E 023°39'0 0.0
2014-Sep-12 16:33N 37°56' E 023°39'0 0.0
2014-Sep-12 15:33N 37°56' E 023°39'7 7.0
2014-Sep-12 14:33N 37°50' E 023°42'  

Dump ship's entire track history